Time;durP1;ratioP1;P1;durP2;ratioP2;P2;SDS_P1;SDS_P2;PMS_P1;PMS_P2;Temp;Humidity;BMP_temperature;BMP_pressure;BME280_temperature;BME280_humidity;BME280_pressure;Samples;Min_cycle;Max_cycle;Signal;HPM_P1;HPM_P2
2022/08/13 00:01:30;;;;;;;5.03;3.17;;;21.40;67.90;;;;;;5052426;28;20534;-49
2022/08/13 00:04:00;;;;;;;4.25;3.05;;;21.40;67.90;;;;;;5055558;28;20061;-47
2022/08/13 00:07:00;;;;;;;4.97;2.50;;;21.40;67.90;;;;;;5053167;28;20044;-52
2022/08/13 00:09:25;;;;;;;4.03;2.50;;;21.30;67.70;;;;;;5052607;28;20048;-52
2022/08/13 00:14:37;;;;;;;4.50;2.53;;;21.30;67.70;;;;;;5055892;28;20076;-50
2022/08/13 00:17:06;;;;;;;3.60;2.63;;;21.20;67.70;;;;;;5056039;28;20048;-49
2022/08/13 00:19:34;;;;;;;5.18;2.88;;;21.20;67.90;;;;;;5037870;28;20049;-50
2022/08/13 00:22:02;;;;;;;8.18;2.95;;;21.10;68.20;;;;;;5055970;28;20127;-51
2022/08/13 00:24:29;;;;;;;8.02;3.00;;;21.10;68.40;;;;;;5037469;28;20069;-48
2022/08/13 00:26:59;;;;;;;7.30;2.72;;;21.10;68.60;;;;;;5053316;28;20480;-49
2022/08/13 00:29:26;;;;;;;5.47;3.10;;;21.00;68.30;;;;;;5025416;28;20049;-46
2022/08/13 00:31:53;;;;;;;8.00;3.25;;;21.00;68.70;;;;;;5051048;28;20396;-47
2022/08/13 00:34:20;;;;;;;4.32;2.72;;;21.00;69.80;;;;;;5029637;28;20564;-44
2022/08/13 00:36:49;;;;;;;4.38;3.15;;;20.90;68.80;;;;;;5055740;28;20056;-47
2022/08/13 00:39:15;;;;;;;5.85;3.03;;;20.90;69.30;;;;;;5037416;28;20110;-48
2022/08/13 00:41:43;;;;;;;9.65;3.30;;;20.90;69.10;;;;;;5024182;28;20056;-42
2022/08/13 00:44:11;;;;;;;6.22;3.20;;;20.80;69.20;;;;;;5047258;28;20489;-50
2022/08/13 00:46:38;;;;;;;4.93;3.00;;;20.80;70.60;;;;;;5035855;28;20123;-44
2022/08/13 00:49:04;;;;;;;6.32;3.17;;;20.80;69.80;;;;;;5053944;28;20572;-49
2022/08/13 00:51:32;;;;;;;3.60;2.90;;;20.70;70.50;;;;;;5037619;28;20080;-49
2022/08/13 00:54:02;;;;;;;4.10;3.00;;;20.70;69.60;;;;;;5055139;28;20496;-45
2022/08/13 00:56:33;;;;;;;4.65;3.25;;;20.60;69.50;;;;;;5054393;28;20049;-51
2022/08/13 00:59:00;;;;;;;7.13;3.00;;;20.60;69.80;;;;;;5037175;28;20064;-53
2022/08/13 01:01:26;;;;;;;7.55;3.20;;;20.50;69.50;;;;;;5054943;28;20053;-40
2022/08/13 01:03:53;;;;;;;5.95;3.40;;;20.50;69.70;;;;;;5054251;28;20122;-48
2022/08/13 01:06:20;;;;;;;5.97;3.05;;;20.50;70.00;;;;;;5054928;28;20510;-46
2022/08/13 01:08:48;;;;;;;6.85;3.45;;;20.50;70.20;;;;;;5035842;28;20084;-49
2022/08/13 01:11:16;;;;;;;6.20;3.35;;;20.40;70.00;;;;;;5054668;28;20493;-48
2022/08/13 01:13:44;;;;;;;7.45;3.20;;;20.40;70.30;;;;;;5054992;28;20139;-49
2022/08/13 01:16:13;;;;;;;5.50;3.38;;;20.30;70.60;;;;;;5054961;28;20136;-48
2022/08/13 01:18:42;;;;;;;7.40;3.25;;;20.30;70.80;;;;;;5036662;28;20067;-45
2022/08/13 01:21:10;;;;;;;4.90;3.13;;;20.30;71.10;;;;;;5036596;28;20072;-49
2022/08/13 01:23:39;;;;;;;4.63;3.38;;;20.30;70.70;;;;;;5051985;28;20053;-47
2022/08/13 01:26:05;;;;;;;4.70;3.10;;;20.20;70.50;;;;;;5051315;28;20130;-48
2022/08/13 01:28:33;;;;;;;11.02;2.70;;;20.20;70.40;;;;;;5053104;28;20080;-51
2022/08/13 01:31:04;;;;;;;7.30;3.00;;;20.20;70.70;;;;;;5053245;28;20119;-51
2022/08/13 01:33:35;;;;;;;6.35;3.10;;;20.20;70.90;;;;;;5053706;28;20389;-45
2022/08/13 01:36:02;;;;;;;7.57;3.13;;;20.10;71.00;;;;;;5036403;28;20053;-48
2022/08/13 01:38:30;;;;;;;5.88;3.03;;;20.10;70.80;;;;;;5032256;28;20139;-49
2022/08/13 01:40:58;;;;;;;7.85;3.00;;;20.10;70.70;;;;;;5035063;28;20580;-48
2022/08/13 01:43:28;;;;;;;6.70;3.70;;;20.00;70.90;;;;;;5054396;28;20500;-50
2022/08/13 01:45:56;;;;;;;4.18;3.15;;;20.00;71.20;;;;;;5054095;28;20045;-45
2022/08/13 01:51:08;;;;;;;8.35;3.30;;;20.00;71.40;;;;;;5054023;28;20682;-45
2022/08/13 01:53:35;;;;;;;4.70;3.20;;;19.90;71.40;;;;;;5051360;28;20503;-49
2022/08/13 01:56:03;;;;;;;4.43;3.00;;;19.90;71.20;;;;;;5053531;28;20053;-49
2022/08/13 01:58:30;;;;;;;4.95;2.95;;;19.90;71.20;;;;;;5051949;28;20135;-44
2022/08/13 02:00:59;;;;;;;7.47;3.22;;;19.80;71.00;;;;;;5034193;28;20075;-49
2022/08/13 02:03:26;;;;;;;6.22;3.22;;;19.90;71.10;;;;;;5053315;28;20045;-48
2022/08/13 02:05:54;;;;;;;5.28;3.08;;;19.80;71.00;;;;;;5035654;28;20118;-45
2022/08/13 02:08:22;;;;;;;5.25;3.10;;;19.80;71.00;;;;;;5035969;28;20151;-49
2022/08/13 02:10:50;;;;;;;6.90;3.20;;;19.70;71.40;;;;;;5054059;28;20045;-43
2022/08/13 02:13:20;;;;;;;5.50;3.13;;;19.70;71.20;;;;;;5052636;28;20052;-51
2022/08/13 02:15:48;;;;;;;9.00;3.30;;;19.60;71.10;;;;;;5052098;28;20081;-47
2022/08/13 02:18:17;;;;;;;6.85;2.67;;;19.70;71.40;;;;;;5053601;28;20084;-45
2022/08/13 02:20:45;;;;;;;7.45;3.03;;;19.60;71.10;;;;;;5052045;28;20055;-48
2022/08/13 02:23:14;;;;;;;7.90;3.28;;;19.60;71.20;;;;;;5051016;28;20045;-48
2022/08/13 02:25:41;;;;;;;5.65;3.13;;;19.60;71.20;;;;;;5035397;28;20052;-46
2022/08/13 02:28:10;;;;;;;6.50;3.28;;;19.50;71.30;;;;;;5050303;28;20124;-45
2022/08/13 02:30:38;;;;;;;7.70;3.28;;;19.50;71.30;;;;;;5050427;28;20461;-45
2022/08/13 02:33:06;;;;;;;6.93;3.28;;;19.50;71.60;;;;;;5034096;28;20072;-48
2022/08/13 02:35:35;;;;;;;5.18;3.17;;;19.40;71.80;;;;;;5051891;28;20493;-48
2022/08/13 02:38:02;;;;;;;6.65;3.58;;;19.40;71.70;;;;;;5050314;28;20052;-48
2022/08/13 02:43:13;;;;;;;7.55;3.13;;;19.30;71.90;;;;;;5035865;28;20397;-48
2022/08/13 02:45:41;;;;;;;4.10;3.30;;;19.30;71.60;;;;;;5015915;28;20136;-50
2022/08/13 02:48:08;;;;;;;5.43;3.40;;;19.30;71.90;;;;;;5015795;28;20132;-45
2022/08/13 02:50:42;;;;;;;4.93;3.25;;;19.20;71.60;;;;;;5042112;28;20127;-43
2022/08/13 02:53:09;;;;;;;4.57;3.08;;;19.20;71.70;;;;;;5033106;28;20049;-40
2022/08/13 02:55:36;;;;;;;5.28;2.75;;;19.20;71.70;;;;;;5052082;28;20605;-48
2022/08/13 02:58:04;;;;;;;5.78;3.70;;;19.20;71.70;;;;;;5051379;28;20056;-48
2022/08/13 03:00:30;;;;;;;4.47;2.92;;;19.10;72.00;;;;;;5034566;28;20152;-44
2022/08/13 03:02:59;;;;;;;5.10;3.53;;;19.10;71.80;;;;;;5051688;28;20072;-46
2022/08/13 03:05:30;;;;;;;3.70;3.03;;;19.10;71.60;;;;;;5034570;28;20049;-45
2022/08/13 03:07:57;;;;;;;5.00;3.15;;;19.10;71.70;;;;;;5047670;28;20069;-47
2022/08/13 03:10:25;;;;;;;5.55;3.17;;;19.00;71.50;;;;;;5042237;28;20088;-50
2022/08/13 03:12:58;;;;;;;9.48;3.15;;;19.00;71.90;;;;;;5033090;28;20049;-46
2022/08/13 03:15:25;;;;;;;6.10;3.42;;;19.00;71.90;;;;;;5034619;28;20056;-41
2022/08/13 03:17:52;;;;;;;6.30;2.92;;;18.90;71.70;;;;;;5051405;28;20132;-47
2022/08/13 03:20:20;;;;;;;7.15;3.47;;;18.90;71.90;;;;;;5050900;28;20133;-50
2022/08/13 03:22:48;;;;;;;6.50;3.47;;;18.80;71.90;;;;;;5050340;28;20091;-48
2022/08/13 03:25:16;;;;;;;9.43;3.13;;;18.80;72.00;;;;;;5035290;28;20057;-47
2022/08/13 03:27:42;;;;;;;3.50;3.00;;;18.80;71.80;;;;;;5051411;28;20052;-48
2022/08/13 03:30:11;;;;;;;5.82;3.47;;;18.80;71.90;;;;;;5033324;28;20049;-48
2022/08/13 03:32:40;;;;;;;5.05;3.22;;;18.70;72.00;;;;;;5049998;28;20138;-48
2022/08/13 03:35:09;;;;;;;4.97;3.13;;;18.70;72.70;;;;;;5034346;28;20098;-46
2022/08/13 03:37:37;;;;;;;4.55;3.22;;;18.70;71.90;;;;;;5033582;28;20056;-46
2022/08/13 03:40:05;;;;;;;5.78;3.50;;;18.70;72.10;;;;;;5034451;28;20053;-48
2022/08/13 03:42:34;;;;;;;4.07;3.28;;;18.60;72.60;;;;;;5051626;28;20136;-48
2022/08/13 03:45:01;;;;;;;4.90;3.58;;;18.60;72.30;;;;;;5048880;28;20132;-45
2022/08/13 03:47:28;;;;;;;3.50;3.00;;;18.60;72.30;;;;;;5050725;28;20520;-51
2022/08/13 03:49:55;;;;;;;5.35;3.35;;;18.60;72.40;;;;;;5034526;28;20136;-49
2022/08/13 03:52:22;;;;;;;6.78;3.53;;;18.50;72.40;;;;;;5033217;28;20132;-49
2022/08/13 03:54:50;;;;;;;5.90;3.38;;;18.50;72.80;;;;;;5051023;28;20551;-48
2022/08/13 03:57:19;;;;;;;8.00;3.60;;;18.50;72.80;;;;;;5051683;28;20124;-48
2022/08/13 03:59:46;;;;;;;5.38;3.15;;;18.50;72.80;;;;;;5050966;28;20056;-49
2022/08/13 04:02:15;;;;;;;5.20;3.28;;;18.40;72.70;;;;;;5033349;28;20507;-49
2022/08/13 04:04:46;;;;;;;3.95;2.92;;;18.40;72.80;;;;;;5050156;28;20404;-50
2022/08/13 04:07:14;;;;;;;5.70;3.55;;;18.40;72.70;;;;;;5051839;28;20072;-46
2022/08/13 04:09:40;;;;;;;6.50;3.13;;;18.40;72.60;;;;;;5034198;28;20045;-49
2022/08/13 04:12:12;;;;;;;8.73;3.92;;;18.40;72.60;;;;;;5050367;28;20085;-46
2022/08/13 04:14:39;;;;;;;8.75;3.00;;;18.30;72.60;;;;;;5033227;28;20260;-47
2022/08/13 04:17:10;;;;;;;6.75;3.20;;;18.30;72.70;;;;;;5051921;28;20052;-51
2022/08/13 04:19:37;;;;;;;5.47;3.13;;;18.30;72.90;;;;;;5032600;28;20500;-47
2022/08/13 04:22:05;;;;;;;6.95;3.83;;;18.20;72.70;;;;;;5051061;28;20075;-47
2022/08/13 04:24:32;;;;;;;6.43;3.60;;;18.20;73.00;;;;;;5033532;28;20095;-51
2022/08/13 04:26:59;;;;;;;3.38;2.97;;;18.20;72.80;;;;;;5050870;28;20099;-47
2022/08/13 04:29:27;;;;;;;7.60;3.80;;;18.20;72.80;;;;;;5049562;28;20588;-45
2022/08/13 04:31:54;;;;;;;4.90;2.95;;;18.20;73.10;;;;;;5051212;28;20098;-50
2022/08/13 04:34:22;;;;;;;4.93;3.10;;;18.20;73.00;;;;;;5050943;28;20455;-51
2022/08/13 04:36:49;;;;;;;6.10;3.30;;;18.20;73.00;;;;;;5033763;28;20084;-52
2022/08/13 04:39:16;;;;;;;3.70;3.28;;;18.10;73.20;;;;;;5033029;28;20045;-44
2022/08/13 04:41:43;;;;;;;6.05;3.25;;;18.10;73.00;;;;;;5032671;28;20044;-48
2022/08/13 04:44:09;;;;;;;3.60;3.00;;;18.10;73.20;;;;;;5034268;28;20102;-49
2022/08/13 04:46:38;;;;;;;7.18;3.17;;;18.10;73.30;;;;;;5037025;28;20136;-48
2022/08/13 04:49:05;;;;;;;6.20;3.17;;;18.10;73.50;;;;;;5055141;28;20048;-39
2022/08/13 04:51:34;;;;;;;4.43;2.70;;;18.10;73.50;;;;;;5052623;28;20056;-49
2022/08/13 04:54:00;;;;;;;7.45;2.67;;;18.10;73.20;;;;;;5036825;28;20061;-51
2022/08/13 04:56:27;;;;;;;9.05;3.80;;;18.10;73.40;;;;;;5054517;28;20048;-51
2022/08/13 04:58:54;;;;;;;5.57;2.65;;;18.10;73.60;;;;;;5036681;28;20473;-47
2022/08/13 05:01:21;;;;;;;6.05;3.05;;;18.10;73.40;;;;;;5035057;28;20053;-51
2022/08/13 05:03:51;;;;;;;4.55;2.92;;;18.10;73.70;;;;;;5054654;28;20556;-47
2022/08/13 05:06:19;;;;;;;3.78;2.72;;;18.10;73.70;;;;;;5037730;28;20053;-48
2022/08/13 05:08:46;;;;;;;4.80;3.10;;;18.10;73.70;;;;;;5035655;28;20138;-50
2022/08/13 05:11:13;;;;;;;6.20;3.22;;;18.10;73.90;;;;;;5052939;28;20543;-48
2022/08/13 05:13:40;;;;;;;3.95;2.95;;;18.10;74.00;;;;;;5053402;28;20049;-47
2022/08/13 05:16:08;;;;;;;8.23;3.55;;;18.10;73.70;;;;;;5054529;28;20451;-43
2022/08/13 05:18:38;;;;;;;6.30;2.80;;;18.10;73.80;;;;;;5054743;28;20052;-46
2022/08/13 05:21:08;;;;;;;7.93;3.50;;;18.10;74.20;;;;;;5052553;28;20492;-45
2022/08/13 05:23:35;;;;;;;5.43;2.85;;;18.10;74.50;;;;;;5054180;28;20053;-37
2022/08/13 05:26:02;;;;;;;7.32;3.17;;;18.10;74.40;;;;;;5035449;28;20053;-48
2022/08/13 05:28:30;;;;;;;9.30;3.30;;;18.10;74.40;;;;;;5036289;28;20515;-47
2022/08/13 05:30:57;;;;;;;7.25;3.47;;;18.10;74.90;;;;;;5034874;28;20044;-47
2022/08/13 05:33:27;;;;;;;3.20;2.85;;;18.20;74.90;;;;;;5053697;28;20053;-44
2022/08/13 05:35:55;;;;;;;6.75;3.22;;;18.20;74.50;;;;;;5035997;28;20132;-43
2022/08/13 05:38:24;;;;;;;7.97;3.60;;;18.20;74.70;;;;;;5052182;28;20504;-46
2022/08/13 05:40:51;;;;;;;5.78;3.55;;;18.30;75.00;;;;;;5035210;28;20510;-44
2022/08/13 05:43:19;;;;;;;6.68;2.95;;;18.30;75.30;;;;;;5052803;28;20132;-47
2022/08/13 05:45:49;;;;;;;8.27;3.10;;;18.40;76.00;;;;;;5035561;28;20082;-48
2022/08/13 05:48:15;;;;;;;5.20;3.63;;;18.40;75.40;;;;;;5033521;28;20176;-38
2022/08/13 05:50:43;;;;;;;6.40;3.33;;;18.50;75.30;;;;;;5050831;28;20180;-46
2022/08/13 05:53:10;;;;;;;10.25;3.70;;;18.60;75.30;;;;;;5053004;28;20520;-46
2022/08/13 05:55:40;;;;;;;7.18;3.53;;;18.70;75.20;;;;;;5053351;28;20136;-50
2022/08/13 05:58:08;;;;;;;6.22;3.25;;;18.80;75.30;;;;;;5052772;28;20125;-44
2022/08/13 06:03:28;;;;;;;6.35;3.10;;;19.10;74.80;;;;;;5052416;28;20451;-46
2022/08/13 06:05:55;;;;;;;5.05;3.20;;;19.20;74.80;;;;;;5034049;28;20049;-48
2022/08/13 06:08:28;;;;;;;8.20;3.80;;;19.40;74.70;;;;;;5035668;28;20049;-48
2022/08/13 06:10:56;;;;;;;6.85;2.90;;;19.40;74.70;;;;;;5053110;28;20053;-50
2022/08/13 06:13:23;;;;;;;6.35;3.17;;;19.60;74.50;;;;;;5051002;28;20502;-48
2022/08/13 06:15:58;;;;;;;9.65;3.22;;;19.70;74.30;;;;;;5035489;28;20059;-48
2022/08/13 06:18:26;;;;;;;4.00;2.50;;;19.80;74.30;;;;;;5050843;28;20128;-51
2022/08/13 06:20:54;;;;;;;13.18;3.72;;;20.00;74.40;;;;;;5052295;28;20140;-50
2022/08/13 06:23:22;;;;;;;8.10;3.25;;;20.10;74.20;;;;;;5052778;28;20143;-46
2022/08/13 06:25:51;;;;;;;5.93;2.80;;;20.30;74.50;;;;;;5051867;28;20067;-49
2022/08/13 06:28:20;;;;;;;4.97;2.85;;;20.40;74.50;;;;;;5047805;28;20049;-44
2022/08/13 06:30:47;;;;;;;7.22;2.78;;;20.50;74.10;;;;;;5045692;28;20080;-45
2022/08/13 06:33:13;;;;;;;6.20;2.88;;;20.70;73.40;;;;;;5031705;28;20053;-48
2022/08/13 06:35:40;;;;;;;6.53;2.20;;;20.80;73.50;;;;;;5049724;28;20303;-46
2022/08/13 06:38:07;;;;;;;5.50;2.42;;;21.10;73.20;;;;;;5033974;28;20056;-48
2022/08/13 06:40:35;;;;;;;6.85;2.55;;;21.20;72.80;;;;;;5049310;28;20507;-50
2022/08/13 06:43:02;;;;;;;5.90;2.42;;;21.40;72.10;;;;;;5032572;28;20573;-51
2022/08/13 06:45:30;;;;;;;7.00;2.47;;;21.50;71.50;;;;;;5051051;28;20068;-46
2022/08/13 06:47:57;;;;;;;6.57;2.42;;;21.60;70.70;;;;;;5045395;28;20485;-48
2022/08/13 06:50:25;;;;;;;5.25;2.13;;;21.80;70.40;;;;;;5034354;28;20045;-49
2022/08/13 06:52:52;;;;;;;5.15;2.05;;;21.90;70.10;;;;;;5052767;28;20084;-48
2022/08/13 06:55:18;;;;;;;7.93;1.98;;;22.00;69.70;;;;;;5049673;28;20464;-51
2022/08/13 06:57:46;;;;;;;3.67;2.15;;;22.20;69.60;;;;;;5030112;28;20057;-46
2022/08/13 07:00:13;;;;;;;5.18;2.20;;;22.30;69.20;;;;;;5050436;28;20061;-46
2022/08/13 07:02:42;;;;;;;8.55;2.10;;;22.40;68.90;;;;;;5051525;28;20045;-47
2022/08/13 07:05:09;;;;;;;8.60;1.88;;;22.60;67.70;;;;;;5050427;28;20065;-49
2022/08/13 07:07:40;;;;;;;3.70;1.67;;;22.70;67.30;;;;;;5029820;28;20080;-47
2022/08/13 07:10:08;;;;;;;13.57;2.10;;;22.80;67.20;;;;;;5052357;28;20076;-49
2022/08/13 07:12:37;;;;;;;9.10;2.10;;;23.00;67.20;;;;;;5049048;28;20063;-48
2022/08/13 07:15:04;;;;;;;6.63;2.05;;;23.20;66.80;;;;;;5049462;28;20111;-49
2022/08/13 07:17:31;;;;;;;3.15;1.92;;;23.30;66.30;;;;;;5050088;28;20061;-49
2022/08/13 07:19:59;;;;;;;3.85;2.05;;;23.50;66.20;;;;;;5033528;28;20500;-50
2022/08/13 07:22:27;;;;;;;7.80;2.03;;;23.60;65.90;;;;;;5050505;28;20080;-47
2022/08/13 07:24:54;;;;;;;13.18;1.80;;;23.70;65.10;;;;;;5050783;28;20090;-50
2022/08/13 07:27:21;;;;;;;5.22;1.88;;;23.90;65.70;;;;;;5034817;28;20512;-47
2022/08/13 07:29:49;;;;;;;6.85;1.80;;;24.10;65.10;;;;;;5049020;28;20081;-50
2022/08/13 07:32:16;;;;;;;5.97;1.70;;;24.30;64.60;;;;;;5050887;28;20087;-50
2022/08/13 07:34:43;;;;;;;7.10;1.80;;;24.40;64.00;;;;;;5029871;28;20107;-47
2022/08/13 07:37:20;;;;;;;3.40;1.75;;;24.60;63.90;;;;;;5033924;28;20134;-45
2022/08/13 07:39:47;;;;;;;7.18;1.90;;;24.80;63.30;;;;;;5047664;28;20049;-49
2022/08/13 07:42:15;;;;;;;8.95;1.60;;;24.90;62.60;;;;;;5046331;28;20055;-51
2022/08/13 07:44:42;;;;;;;3.38;1.50;;;25.00;62.50;;;;;;5049975;28;20064;-48
2022/08/13 07:47:11;;;;;;;6.15;1.60;;;25.20;62.90;;;;;;5049271;28;20041;-48
2022/08/13 07:49:37;;;;;;;10.00;1.83;;;25.40;62.40;;;;;;5033770;28;20134;-47
2022/08/13 07:52:05;;;;;;;6.80;1.70;;;25.60;62.20;;;;;;5047873;28;20136;-48
2022/08/13 07:54:34;;;;;;;2.50;1.55;;;25.80;62.40;;;;;;5051291;28;20076;-50
2022/08/13 07:57:01;;;;;;;4.75;1.55;;;26.00;62.30;;;;;;5051767;28;20059;-52
2022/08/13 07:59:28;;;;;;;5.72;1.52;;;26.20;61.30;;;;;;5050549;28;20072;-45
2022/08/13 08:01:56;;;;;;;3.75;1.50;;;26.40;61.00;;;;;;5051871;28;20045;-51
2022/08/13 08:04:24;;;;;;;5.47;1.33;;;26.60;60.70;;;;;;5046712;28;20124;-44
2022/08/13 08:06:51;;;;;;;7.10;1.50;;;26.70;59.60;;;;;;5049471;28;20049;-52
2022/08/13 08:09:18;;;;;;;4.75;1.73;;;26.80;59.40;;;;;;5052209;28;20083;-51
2022/08/13 08:14:31;;;;;;;6.68;1.30;;;27.10;58.70;;;;;;5031279;28;20140;-50
2022/08/13 08:16:59;;;;;;;5.55;1.50;;;27.30;58.50;;;;;;5041272;28;20119;-44
2022/08/13 08:19:27;;;;;;;5.43;1.40;;;27.50;57.30;;;;;;5027384;28;20056;-44
2022/08/13 08:21:56;;;;;;;6.03;1.60;;;27.60;57.00;;;;;;5053764;28;20069;-41
2022/08/13 08:24:23;;;;;;;5.05;1.25;;;27.80;57.40;;;;;;5054468;28;20055;-44
2022/08/13 08:26:53;;;;;;;5.10;1.30;;;27.80;56.90;;;;;;5036582;28;20132;-48
2022/08/13 08:29:21;;;;;;;5.85;1.50;;;28.00;56.20;;;;;;5054617;28;20056;-47
2022/08/13 08:31:50;;;;;;;7.63;1.30;;;28.10;55.60;;;;;;5036819;28;20107;-49
2022/08/13 08:34:17;;;;;;;2.35;1.35;;;28.20;55.70;;;;;;5047818;28;20128;-51
2022/08/13 08:36:44;;;;;;;6.28;1.25;;;28.30;55.00;;;;;;5030507;28;20132;-46
2022/08/13 08:44:42;;;;;;;9.63;1.35;;;28.60;53.70;;;;;;5035576;28;20465;-47
2022/08/13 08:47:10;;;;;;;7.25;1.45;;;28.80;53.30;;;;;;5021722;28;20052;-46
2022/08/13 08:49:37;;;;;;;5.95;1.10;;;28.90;52.70;;;;;;5048369;28;20045;-43
2022/08/13 08:52:04;;;;;;;7.28;1.50;;;29.00;52.80;;;;;;5033988;28;20060;-53
2022/08/13 08:54:31;;;;;;;3.53;1.30;;;29.20;52.60;;;;;;5045599;28;20049;-47
2022/08/13 08:56:59;;;;;;;3.35;1.33;;;29.30;51.90;;;;;;5034038;28;20065;-49
2022/08/13 08:59:27;;;;;;;5.03;1.30;;;29.50;51.60;;;;;;5052720;28;20420;-51
2022/08/13 09:01:55;;;;;;;5.93;1.45;;;29.60;51.80;;;;;;5053277;28;20136;-50
2022/08/13 09:04:22;;;;;;;3.08;1.23;;;29.70;51.10;;;;;;5053235;28;20059;-53
2022/08/13 09:06:49;;;;;;;3.10;1.42;;;29.80;50.90;;;;;;5036507;28;20136;-51
2022/08/13 09:09:17;;;;;;;5.25;1.30;;;29.90;50.50;;;;;;5052361;28;20045;-50
2022/08/13 09:11:43;;;;;;;2.05;1.20;;;30.00;50.00;;;;;;5030872;28;20056;-49
2022/08/13 09:14:13;;;;;;;2.42;1.13;;;30.10;49.30;;;;;;5051114;28;20083;-49
2022/08/13 09:16:40;;;;;;;4.95;1.20;;;30.10;49.10;;;;;;5036978;28;20045;-52
2022/08/13 09:19:07;;;;;;;3.17;1.20;;;30.30;49.10;;;;;;5053978;28;20051;-52
2022/08/13 09:21:40;;;;;;;4.82;1.50;;;30.40;49.20;;;;;;5037085;28;20132;-52
2022/08/13 09:24:07;;;;;;;4.53;1.17;;;30.50;48.40;;;;;;5035251;28;20056;-51
2022/08/13 09:26:34;;;;;;;7.90;1.40;;;30.60;48.30;;;;;;5055004;28;20131;-52
2022/08/13 09:29:00;;;;;;;4.85;1.27;;;30.70;48.40;;;;;;5037099;28;20404;-53
2022/08/13 09:31:29;;;;;;;4.43;1.10;;;30.90;48.00;;;;;;5054143;28;20453;-39
2022/08/13 09:33:56;;;;;;;8.00;1.75;;;31.00;47.80;;;;;;5050126;28;20053;-52
2022/08/13 09:36:24;;;;;;;2.83;1.20;;;31.10;47.30;;;;;;5036801;28;20465;-50
2022/08/13 09:38:51;;;;;;;5.32;1.30;;;31.10;46.80;;;;;;5036763;28;20049;-53
2022/08/13 09:41:22;;;;;;;3.85;1.20;;;31.10;46.60;;;;;;5034531;28;20136;-51
2022/08/13 09:43:49;;;;;;;2.60;1.13;;;31.30;47.10;;;;;;5052213;28;20453;-53
2022/08/13 09:46:16;;;;;;;1.27;1.10;;;31.50;46.50;;;;;;5048709;28;20047;-50
2022/08/13 09:48:45;;;;;;;3.70;1.10;;;31.60;46.20;;;;;;5051601;28;20147;-48
2022/08/13 09:51:13;;;;;;;4.70;0.95;;;31.60;45.90;;;;;;5048773;28;20053;-53
2022/08/13 09:53:40;;;;;;;6.85;1.20;;;31.70;46.10;;;;;;5031623;28;20049;-53
2022/08/13 09:56:08;;;;;;;3.78;1.00;;;31.80;45.50;;;;;;5053121;28;20544;-53
2022/08/13 09:58:35;;;;;;;3.03;1.33;;;31.80;45.70;;;;;;5025313;28;20136;-52
2022/08/13 10:01:02;;;;;;;5.18;1.35;;;32.00;45.50;;;;;;5047496;28;20404;-49
2022/08/13 10:03:28;;;;;;;7.00;1.45;;;32.00;45.50;;;;;;5048501;28;20069;-52
2022/08/13 10:05:57;;;;;;;5.43;1.27;;;32.10;46.40;;;;;;5035284;28;20049;-50
2022/08/13 10:08:24;;;;;;;4.15;1.20;;;32.30;45.30;;;;;;5053091;28;20041;-51
2022/08/13 10:10:51;;;;;;;3.70;1.30;;;32.40;45.40;;;;;;5051491;28;20106;-48
2022/08/13 10:13:17;;;;;;;4.10;1.40;;;32.40;44.70;;;;;;5025759;28;20145;-47
2022/08/13 10:15:44;;;;;;;2.13;1.38;;;32.40;43.70;;;;;;5027872;28;20053;-47
2022/08/13 10:18:11;;;;;;;5.72;1.65;;;32.30;43.60;;;;;;5053839;28;20451;-52
2022/08/13 10:20:39;;;;;;;2.70;1.50;;;32.40;44.00;;;;;;5052198;28;20045;-51
2022/08/13 10:23:08;;;;;;;2.85;1.02;;;32.50;43.60;;;;;;5026269;28;20099;-54
2022/08/13 10:25:37;;;;;;;4.35;1.30;;;32.60;43.10;;;;;;5042486;28;20049;-54
2022/08/13 10:28:17;;;;;;;2.25;1.30;;;32.60;42.60;;;;;;5053700;28;20087;-54
2022/08/13 10:30:44;;;;;;;4.25;1.25;;;32.50;42.40;;;;;;5050088;28;20148;-46
2022/08/13 10:33:12;;;;;;;3.95;1.00;;;32.50;43.00;;;;;;5034010;28;20186;-51
2022/08/13 10:35:39;;;;;;;2.83;1.30;;;32.60;43.60;;;;;;5051555;28;20045;-49
2022/08/13 10:38:08;;;;;;;2.85;1.30;;;32.70;43.50;;;;;;5052614;28;20496;-53
2022/08/13 10:40:35;;;;;;;3.08;1.20;;;32.80;43.30;;;;;;5031848;28;20403;-49
2022/08/13 10:43:04;;;;;;;18.05;1.40;;;32.90;42.80;;;;;;5031760;28;20466;-48
2022/08/13 10:45:30;;;;;;;6.50;1.30;;;32.90;42.80;;;;;;5019805;28;20057;-51
2022/08/13 10:47:57;;;;;;;2.17;1.00;;;32.90;42.40;;;;;;5051070;28;20044;-48
2022/08/13 10:50:29;;;;;;;2.88;1.50;;;32.90;42.00;;;;;;5052847;28;20542;-49
2022/08/13 10:52:56;;;;;;;4.75;1.30;;;32.90;42.10;;;;;;5050008;28;20052;-53
2022/08/13 10:55:24;;;;;;;1.48;1.10;;;32.90;42.70;;;;;;5034421;28;20136;-52
2022/08/13 10:57:51;;;;;;;3.22;1.20;;;33.10;42.70;;;;;;5035204;28;20080;-53
2022/08/13 11:00:18;;;;;;;6.38;1.35;;;33.20;42.30;;;;;;5052974;28;20052;-52
2022/08/13 11:02:46;;;;;;;3.30;1.13;;;33.30;42.50;;;;;;5050345;28;20049;-54
2022/08/13 11:05:13;;;;;;;3.28;1.30;;;33.40;42.20;;;;;;5051454;28;20049;-50
2022/08/13 11:07:40;;;;;;;3.75;1.38;;;33.50;41.90;;;;;;5034826;28;20404;-50
2022/08/13 11:10:08;;;;;;;2.97;1.05;;;33.60;41.40;;;;;;5033605;28;20076;-45
2022/08/13 11:12:37;;;;;;;3.53;1.33;;;33.60;41.50;;;;;;5033488;28;20057;-49
2022/08/13 11:15:06;;;;;;;11.82;1.80;;;33.50;41.20;;;;;;5034232;28;20045;-52
2022/08/13 11:17:33;;;;;;;4.03;1.35;;;33.50;41.40;;;;;;5048321;28;20065;-52
2022/08/13 11:20:04;;;;;;;3.13;1.20;;;33.50;41.90;;;;;;5029282;28;20144;-52
2022/08/13 11:22:31;;;;;;;2.20;1.30;;;33.70;42.10;;;;;;5051192;28;20131;-53
2022/08/13 11:24:59;;;;;;;3.15;1.60;;;33.90;42.00;;;;;;5052062;28;20049;-53
2022/08/13 11:27:26;;;;;;;4.45;1.60;;;33.90;41.20;;;;;;5050742;28;20400;-50
2022/08/13 11:29:54;;;;;;;2.72;1.27;;;33.80;41.20;;;;;;5051544;28;20128;-49
2022/08/13 11:32:20;;;;;;;4.03;1.60;;;33.70;41.90;;;;;;5052299;28;20138;-52
2022/08/13 11:34:47;;;;;;;5.95;1.27;;;33.60;41.90;;;;;;5032820;28;20052;-39
2022/08/13 11:37:14;;;;;;;4.00;1.30;;;33.70;42.20;;;;;;5029146;28;20136;-49
2022/08/13 11:39:41;;;;;;;3.85;1.33;;;33.90;42.20;;;;;;5051535;28;20127;-49
2022/08/13 11:42:08;;;;;;;2.25;1.25;;;34.00;41.30;;;;;;5051611;28;20566;-52
2022/08/13 11:44:34;;;;;;;4.05;1.48;;;34.10;41.10;;;;;;5029222;28;20099;-53
2022/08/13 11:47:02;;;;;;;2.00;1.17;;;34.30;41.10;;;;;;5050418;28;20405;-54
2022/08/13 11:49:29;;;;;;;5.57;1.30;;;34.30;40.60;;;;;;5047113;28;20136;-49
2022/08/13 11:51:56;;;;;;;5.50;1.20;;;34.30;40.10;;;;;;5034193;28;20136;-52
2022/08/13 11:54:23;;;;;;;3.67;1.30;;;34.30;39.80;;;;;;5048926;28;20382;-50
2022/08/13 11:56:50;;;;;;;3.40;1.27;;;34.30;39.60;;;;;;5049581;28;20107;-51
2022/08/13 11:59:17;;;;;;;6.05;1.38;;;34.40;39.90;;;;;;5051123;28;20037;-54
2022/08/13 12:01:44;;;;;;;3.50;1.20;;;34.50;39.80;;;;;;5034433;28;20092;-51
2022/08/13 12:04:12;;;;;;;6.60;1.55;;;34.50;40.10;;;;;;5032353;28;20382;-48
2022/08/13 12:06:39;;;;;;;3.00;1.40;;;34.50;39.40;;;;;;5027883;28;20072;-48
2022/08/13 12:09:06;;;;;;;6.72;1.50;;;34.50;39.60;;;;;;5030124;28;20068;-52
2022/08/13 12:11:34;;;;;;;7.97;1.15;;;34.70;39.40;;;;;;5047717;28;20037;-47
2022/08/13 12:14:01;;;;;;;4.70;1.30;;;34.70;38.60;;;;;;5046228;28;20114;-55
2022/08/13 12:16:28;;;;;;;2.83;1.38;;;34.70;38.40;;;;;;5046442;28;20111;-50
2022/08/13 12:18:55;;;;;;;2.55;1.50;;;34.50;38.80;;;;;;5031552;28;20068;-50
2022/08/13 12:21:23;;;;;;;2.60;1.00;;;34.50;38.50;;;;;;5033537;28;20527;-55
2022/08/13 12:23:50;;;;;;;2.33;1.48;;;34.50;38.40;;;;;;5050981;28;20052;-54
2022/08/13 12:26:16;;;;;;;5.50;1.40;;;34.50;39.40;;;;;;5049306;28;20140;-51
2022/08/13 12:28:43;;;;;;;3.97;1.17;;;34.60;39.40;;;;;;5051840;28;20096;-54
2022/08/13 12:31:14;;;;;;;2.95;1.42;;;34.60;39.50;;;;;;5050115;28;20037;-54
2022/08/13 12:33:41;;;;;;;7.78;1.20;;;34.70;39.10;;;;;;5032061;28;20057;-55
2022/08/13 12:36:08;;;;;;;6.32;1.42;;;34.80;39.20;;;;;;5048348;28;20521;-54
2022/08/13 12:38:36;;;;;;;1.85;1.23;;;34.80;38.80;;;;;;5051113;28;20102;-53
2022/08/13 12:41:03;;;;;;;2.28;1.35;;;34.90;39.30;;;;;;5050709;28;20080;-55
2022/08/13 12:43:30;;;;;;;4.03;1.38;;;35.10;39.30;;;;;;5031228;28;20072;-54
2022/08/13 12:45:57;;;;;;;4.03;1.55;;;35.20;39.70;;;;;;5048503;28;20056;-51
2022/08/13 12:48:29;;;;;;;4.55;1.17;;;35.40;40.00;;;;;;5032733;28;20076;-51
2022/08/13 12:50:55;;;;;;;4.88;1.35;;;35.40;39.40;;;;;;5032364;28;20124;-52
2022/08/13 12:53:22;;;;;;;2.50;1.30;;;35.60;39.30;;;;;;5050323;28;20127;-54
2022/08/13 12:55:50;;;;;;;2.85;1.45;;;35.50;38.20;;;;;;5051221;28;20396;-51
2022/08/13 12:58:18;;;;;;;3.45;1.30;;;35.10;38.00;;;;;;5051009;28;20095;-54
2022/08/13 13:00:46;;;;;;;2.13;1.45;;;35.00;38.50;;;;;;5032399;28;20131;-53
2022/08/13 13:03:13;;;;;;;1.55;1.30;;;35.00;39.10;;;;;;5051073;28;20049;-54
2022/08/13 13:05:40;;;;;;;3.72;1.30;;;35.10;39.10;;;;;;5053712;28;20076;-53
2022/08/13 13:08:14;;;;;;;2.30;1.13;;;35.30;38.80;;;;;;5053659;28;20092;-52